Terminal Aerodrome Forecast
Issued by NWS

Home | Current Version | Previous Version | Text Only | Print | Product List | Glossary On
Versions: 1 2 3 4 5 6 7 8 9 10 11 12 13 14
023
FTAK31 PAJN 251414 AAA
TAFAPG
TAF AMD
PAPG 251414Z 2514/2612 VRB04KT P6SM VCFG OVC015
      TEMPO 2514/2517 4SM BR BKN007
     FM251800 06004KT P6SM SCT050
     FM260800 10009KT P6SM VCSH BKN040=

USA.gov is the U.S. government's official web portal to all federal, state and local government web resources and services.